sensor_id;sensor_type;location;lat;lon;timestamp;pressure;altitude;pressure_sealevel;temperature;humidity
85000;BME280;75320;51.608;7.952;2024-02-15T00:00:03;101078.25;;;11.58;95.08
85000;BME280;75320;51.608;7.952;2024-02-15T00:02:28;101074.06;;;11.64;94.24
85000;BME280;75320;51.608;7.952;2024-02-15T00:04:54;101084.00;;;11.62;94.39
85000;BME280;75320;51.608;7.952;2024-02-15T00:07:19;101079.06;;;11.59;94.60
85000;BME280;75320;51.608;7.952;2024-02-15T00:09:47;101081.34;;;11.62;94.29
85000;BME280;75320;51.608;7.952;2024-02-15T00:12:13;101078.91;;;11.61;94.84
85000;BME280;75320;51.608;7.952;2024-02-15T00:14:38;101078.56;;;11.55;94.54
85000;BME280;75320;51.608;7.952;2024-02-15T00:17:03;101090.16;;;11.54;94.94
85000;BME280;75320;51.608;7.952;2024-02-15T00:19:29;101086.50;;;11.55;95.29
85000;BME280;75320;51.608;7.952;2024-02-15T00:21:56;101090.81;;;11.56;95.60
85000;BME280;75320;51.608;7.952;2024-02-15T00:24:22;101095.63;;;11.53;95.30
85000;BME280;75320;51.608;7.952;2024-02-15T00:26:47;101085.69;;;11.55;94.93
85000;BME280;75320;51.608;7.952;2024-02-15T00:29:13;101084.03;;;11.54;95.00
85000;BME280;75320;51.608;7.952;2024-02-15T00:31:38;101079.91;;;11.51;95.50
85000;BME280;75320;51.608;7.952;2024-02-15T00:34:05;101083.22;;;11.53;95.43
85000;BME280;75320;51.608;7.952;2024-02-15T00:36:31;101078.75;;;11.54;95.44
85000;BME280;75320;51.608;7.952;2024-02-15T00:38:57;101081.56;;;11.52;94.91
85000;BME280;75320;51.608;7.952;2024-02-15T00:41:22;101082.41;;;11.53;95.21
85000;BME280;75320;51.608;7.952;2024-02-15T00:43:48;101088.50;;;11.53;95.15
85000;BME280;75320;51.608;7.952;2024-02-15T00:46:15;101094.41;;;11.55;95.03
85000;BME280;75320;51.608;7.952;2024-02-15T00:48:41;101081.22;;;11.55;94.74
85000;BME280;75320;51.608;7.952;2024-02-15T00:51:06;101090.81;;;11.56;95.43
85000;BME280;75320;51.608;7.952;2024-02-15T00:53:32;101087.84;;;11.51;95.47
85000;BME280;75320;51.608;7.952;2024-02-15T00:55:58;101092.44;;;11.57;95.52
85000;BME280;75320;51.608;7.952;2024-02-15T00:58:23;101094.09;;;11.58;94.62
85000;BME280;75320;51.608;7.952;2024-02-15T01:00:49;101088.19;;;11.48;94.77
85000;BME280;75320;51.608;7.952;2024-02-15T01:03:15;101091.78;;;11.55;94.63
85000;BME280;75320;51.608;7.952;2024-02-15T01:05:41;101099.88;;;11.54;95.23
85000;BME280;75320;51.608;7.952;2024-02-15T01:08:06;101091.97;;;11.54;94.82
85000;BME280;75320;51.608;7.952;2024-02-15T01:10:31;101090.47;;;11.60;95.20
85000;BME280;75320;51.608;7.952;2024-02-15T01:12:58;101095.63;;;11.53;94.93
85000;BME280;75320;51.608;7.952;2024-02-15T01:15:24;101091.78;;;11.55;94.79
85000;BME280;75320;51.608;7.952;2024-02-15T01:17:49;101097.56;;;11.59;94.76
85000;BME280;75320;51.608;7.952;2024-02-15T01:20:15;101095.75;;;11.60;95.02
85000;BME280;75320;51.608;7.952;2024-02-15T01:22:40;101102.19;;;11.57;95.51
85000;BME280;75320;51.608;7.952;2024-02-15T01:25:06;101102.19;;;11.57;95.36
85000;BME280;75320;51.608;7.952;2024-02-15T01:27:32;101104.00;;;11.56;95.29
85000;BME280;75320;51.608;7.952;2024-02-15T01:29:57;101100.34;;;11.57;94.84
85000;BME280;75320;51.608;7.952;2024-02-15T01:32:23;101100.22;;;11.59;95.29
85000;BME280;75320;51.608;7.952;2024-02-15T01:34:48;101102.19;;;11.49;95.83
85000;BME280;75320;51.608;7.952;2024-02-15T01:37:16;101103.69;;;11.51;95.32
85000;BME280;75320;51.608;7.952;2024-02-15T01:39:42;101096.44;;;11.45;95.63
85000;BME280;75320;51.608;7.952;2024-02-15T01:42:07;101099.91;;;11.46;96.16
85000;BME280;75320;51.608;7.952;2024-02-15T01:44:32;101096.59;;;11.52;95.92
85000;BME280;75320;51.608;7.952;2024-02-15T01:46:58;101094.13;;;11.50;96.14
85000;BME280;75320;51.608;7.952;2024-02-15T01:49:25;101099.56;;;11.49;95.39
85000;BME280;75320;51.608;7.952;2024-02-15T01:51:53;101090.84;;;11.48;95.27
85000;BME280;75320;51.608;7.952;2024-02-15T01:54:21;101094.00;;;11.44;95.67
85000;BME280;75320;51.608;7.952;2024-02-15T01:56:47;101099.56;;;11.49;95.31
85000;BME280;75320;51.608;7.952;2024-02-15T01:59:15;101097.56;;;11.51;95.54
85000;BME280;75320;51.608;7.952;2024-02-15T02:01:40;101098.41;;;11.51;95.64
85000;BME280;75320;51.608;7.952;2024-02-15T02:04:06;101092.13;;;11.52;95.53
85000;BME280;75320;51.608;7.952;2024-02-15T02:06:31;101093.78;;;11.53;95.07
85000;BME280;75320;51.608;7.952;2024-02-15T02:08:57;101101.53;;;11.55;95.82
85000;BME280;75320;51.608;7.952;2024-02-15T02:11:23;101094.28;;;11.57;95.56
85000;BME280;75320;51.608;7.952;2024-02-15T02:13:49;101094.28;;;11.57;94.63
85000;BME280;75320;51.608;7.952;2024-02-15T02:16:28;101088.63;;;11.60;94.98
85000;BME280;75320;51.608;7.952;2024-02-15T02:18:56;101082.53;;;11.60;95.04
85000;BME280;75320;51.608;7.952;2024-02-15T02:21:26;101076.28;;;11.52;94.80
85000;BME280;75320;51.608;7.952;2024-02-15T02:23:53;101078.75;;;11.54;95.06
85000;BME280;75320;51.608;7.952;2024-02-15T02:26:21;101080.75;;;11.52;94.76
85000;BME280;75320;51.608;7.952;2024-02-15T02:28:47;101086.84;;;11.52;94.59
85000;BME280;75320;51.608;7.952;2024-02-15T02:31:13;101080.28;;;11.48;95.16
85000;BME280;75320;51.608;7.952;2024-02-15T02:33:39;101077.28;;;11.51;95.18
85000;BME280;75320;51.608;7.952;2024-02-15T02:36:06;101066.06;;;11.49;95.06
85000;BME280;75320;51.608;7.952;2024-02-15T02:38:37;101070.03;;;11.45;95.46
85000;BME280;75320;51.608;7.952;2024-02-15T02:41:05;101076.16;;;11.46;95.54
85000;BME280;75320;51.608;7.952;2024-02-15T02:43:31;101071.56;;;11.32;95.15
85000;BME280;75320;51.608;7.952;2024-02-15T02:45:56;101081.81;;;11.35;95.42
85000;BME280;75320;51.608;7.952;2024-02-15T02:48:21;101076.19;;;11.30;95.33
85000;BME280;75320;51.608;7.952;2024-02-15T02:50:48;101075.00;;;11.40;95.41
85000;BME280;75320;51.608;7.952;2024-02-15T02:53:14;101070.38;;;11.42;95.27
85000;BME280;75320;51.608;7.952;2024-02-15T02:55:41;101071.19;;;11.43;94.91
85000;BME280;75320;51.608;7.952;2024-02-15T02:58:06;101061.81;;;11.40;94.84
85000;BME280;75320;51.608;7.952;2024-02-15T03:00:33;101062.50;;;11.34;95.47
85000;BME280;75320;51.608;7.952;2024-02-15T03:02:58;101063.66;;;11.40;95.02
85000;BME280;75320;51.608;7.952;2024-02-15T03:05:27;101054.38;;;11.44;95.40
85000;BME280;75320;51.608;7.952;2024-02-15T03:07:54;101066.06;;;11.49;94.41
85000;BME280;75320;51.608;7.952;2024-02-15T03:10:19;101064.13;;;11.43;94.95
85000;BME280;75320;51.608;7.952;2024-02-15T03:12:45;101055.22;;;11.44;95.15
85000;BME280;75320;51.608;7.952;2024-02-15T03:15:14;101059.47;;;11.45;95.05
85000;BME280;75320;51.608;7.952;2024-02-15T03:17:43;101055.34;;;11.43;95.41
85000;BME280;75320;51.608;7.952;2024-02-15T03:20:10;101062.63;;;11.41;95.18
85000;BME280;75320;51.608;7.952;2024-02-15T03:22:55;101062.44;;;11.42;94.68
85000;BME280;75320;51.608;7.952;2024-02-15T03:25:21;101050.41;;;11.48;94.93
85000;BME280;75320;51.608;7.952;2024-02-15T03:27:54;101045.63;;;11.43;94.35
85000;BME280;75320;51.608;7.952;2024-02-15T03:30:22;101050.91;;;11.43;94.98
85000;BME280;75320;51.608;7.952;2024-02-15T03:32:49;101051.28;;;11.32;94.96
85000;BME280;75320;51.608;7.952;2024-02-15T03:35:17;101048.63;;;11.32;95.25
85000;BME280;75320;51.608;7.952;2024-02-15T03:37:43;101038.44;;;11.29;95.52
85000;BME280;75320;51.608;7.952;2024-02-15T03:40:08;101040.28;;;11.21;95.27
85000;BME280;75320;51.608;7.952;2024-02-15T03:42:35;101035.47;;;11.24;95.30
85000;BME280;75320;51.608;7.952;2024-02-15T03:45:04;101043.91;;;11.20;95.63
85000;BME280;75320;51.608;7.952;2024-02-15T03:47:34;101036.50;;;11.15;95.38
85000;BME280;75320;51.608;7.952;2024-02-15T03:50:01;101040.13;;;11.14;95.04
85000;BME280;75320;51.608;7.952;2024-02-15T03:52:27;101040.00;;;11.08;94.97
85000;BME280;75320;51.608;7.952;2024-02-15T03:54:55;101034.72;;;11.00;95.10
85000;BME280;75320;51.608;7.952;2024-02-15T03:57:22;101033.41;;;10.96;95.43
85000;BME280;75320;51.608;7.952;2024-02-15T03:59:47;101032.59;;;10.87;95.46
85000;BME280;75320;51.608;7.952;2024-02-15T04:02:18;101044.47;;;10.91;95.61
85000;BME280;75320;51.608;7.952;2024-02-15T04:04:44;101039.53;;;10.88;95.95
85000;BME280;75320;51.608;7.952;2024-02-15T04:07:15;101036.22;;;10.94;95.34
85000;BME280;75320;51.608;7.952;2024-02-15T04:09:42;101041.19;;;10.97;96.23
85000;BME280;75320;51.608;7.952;2024-02-15T04:12:07;101037.69;;;11.05;95.35
85000;BME280;75320;51.608;7.952;2024-02-15T04:14:33;101042.63;;;11.00;95.36
85000;BME280;75320;51.608;7.952;2024-02-15T04:16:59;101032.72;;;11.10;95.40
85000;BME280;75320;51.608;7.952;2024-02-15T04:19:27;101023.66;;;11.04;95.30
85000;BME280;75320;51.608;7.952;2024-02-15T04:21:52;101024.81;;;11.10;95.66
85000;BME280;75320;51.608;7.952;2024-02-15T04:24:17;101013.53;;;11.24;94.81
85000;BME280;75320;51.608;7.952;2024-02-15T04:26:43;101023.56;;;11.28;94.67
85000;BME280;75320;51.608;7.952;2024-02-15T04:29:08;101027.88;;;11.29;94.33
85000;BME280;75320;51.608;7.952;2024-02-15T04:31:35;101032.66;;;11.26;94.38
85000;BME280;75320;51.608;7.952;2024-02-15T04:34:04;101037.66;;;11.21;94.19
85000;BME280;75320;51.608;7.952;2024-02-15T04:36:29;101038.44;;;11.21;94.14
85000;BME280;75320;51.608;7.952;2024-02-15T04:38:59;101045.03;;;11.25;94.05
85000;BME280;75320;51.608;7.952;2024-02-15T04:41:26;101035.16;;;11.27;94.00
85000;BME280;75320;51.608;7.952;2024-02-15T04:43:52;101042.75;;;11.22;94.22
85000;BME280;75320;51.608;7.952;2024-02-15T04:46:18;101040.56;;;11.26;94.21
85000;BME280;75320;51.608;7.952;2024-02-15T04:48:46;101036.59;;;11.30;93.79
85000;BME280;75320;51.608;7.952;2024-02-15T04:51:12;101038.28;;;11.23;94.20
85000;BME280;75320;51.608;7.952;2024-02-15T04:53:37;101033.16;;;11.21;93.17
85000;BME280;75320;51.608;7.952;2024-02-15T04:56:05;101032.69;;;11.18;93.93
85000;BME280;75320;51.608;7.952;2024-02-15T04:58:37;101032.34;;;11.29;94.08
85000;BME280;75320;51.608;7.952;2024-02-15T05:01:03;101026.41;;;11.27;93.12
85000;BME280;75320;51.608;7.952;2024-02-15T05:03:31;101031.34;;;11.22;93.34
85000;BME280;75320;51.608;7.952;2024-02-15T05:06:00;101028.91;;;11.20;94.04
85000;BME280;75320;51.608;7.952;2024-02-15T05:08:25;101023.78;;;11.19;93.46
85000;BME280;75320;51.608;7.952;2024-02-15T05:10:51;101014.41;;;11.16;94.04
85000;BME280;75320;51.608;7.952;2024-02-15T05:13:21;101024.31;;;11.14;93.65
85000;BME280;75320;51.608;7.952;2024-02-15T05:15:47;101018.03;;;11.15;93.88
85000;BME280;75320;51.608;7.952;2024-02-15T05:18:12;101016.03;;;11.17;94.27
85000;BME280;75320;51.608;7.952;2024-02-15T05:20:38;101007.59;;;11.22;93.39
85000;BME280;75320;51.608;7.952;2024-02-15T05:23:06;101019.97;;;11.21;93.54
85000;BME280;75320;51.608;7.952;2024-02-15T05:25:31;101014.03;;;11.19;93.71
85000;BME280;75320;51.608;7.952;2024-02-15T05:27:58;101005.47;;;11.17;93.67
85000;BME280;75320;51.608;7.952;2024-02-15T05:30:24;101013.56;;;11.16;93.63
85000;BME280;75320;51.608;7.952;2024-02-15T05:32:50;101011.41;;;11.19;94.00
85000;BME280;75320;51.608;7.952;2024-02-15T05:35:17;101017.69;;;11.18;93.83
85000;BME280;75320;51.608;7.952;2024-02-15T05:37:43;101009.59;;;11.20;93.53
85000;BME280;75320;51.608;7.952;2024-02-15T05:40:08;101014.22;;;11.18;93.69
85000;BME280;75320;51.608;7.952;2024-02-15T05:42:41;101002.19;;;11.15;93.66
85000;BME280;75320;51.608;7.952;2024-02-15T05:45:40;101002.78;;;11.25;93.26
85000;BME280;75320;51.608;7.952;2024-02-15T05:48:05;101012.22;;;11.20;93.57
85000;BME280;75320;51.608;7.952;2024-02-15T05:50:32;101005.28;;;11.19;93.97
85000;BME280;75320;51.608;7.952;2024-02-15T05:52:57;100991.75;;;11.22;93.39
85000;BME280;75320;51.608;7.952;2024-02-15T05:55:24;100999.16;;;11.26;93.96
85000;BME280;75320;51.608;7.952;2024-02-15T05:57:51;101000.97;;;11.26;93.42
85000;BME280;75320;51.608;7.952;2024-02-15T06:00:16;100997.38;;;11.27;93.51
85000;BME280;75320;51.608;7.952;2024-02-15T06:02:44;100996.53;;;11.26;93.48
85000;BME280;75320;51.608;7.952;2024-02-15T06:05:09;100992.88;;;11.35;92.98
85000;BME280;75320;51.608;7.952;2024-02-15T06:07:35;100987.34;;;11.45;92.39
85000;BME280;75320;51.608;7.952;2024-02-15T06:10:00;100984.44;;;11.40;92.53
85000;BME280;75320;51.608;7.952;2024-02-15T06:12:28;100976.50;;;11.40;92.55
85000;BME280;75320;51.608;7.952;2024-02-15T06:14:53;100979.63;;;11.43;92.87
85000;BME280;75320;51.608;7.952;2024-02-15T06:17:19;100989.84;;;11.46;92.40
85000;BME280;75320;51.608;7.952;2024-02-15T06:19:44;100988.97;;;11.54;91.92
85000;BME280;75320;51.608;7.952;2024-02-15T06:22:09;100993.41;;;11.53;92.74
85000;BME280;75320;51.608;7.952;2024-02-15T06:24:37;100990.13;;;11.51;92.36
85000;BME280;75320;51.608;7.952;2024-02-15T06:27:03;100988.63;;;11.57;91.85
85000;BME280;75320;51.608;7.952;2024-02-15T06:29:29;100996.75;;;11.47;92.13
85000;BME280;75320;51.608;7.952;2024-02-15T06:32:13;100998.56;;;11.47;91.92
85000;BME280;75320;51.608;7.952;2024-02-15T06:34:56;100998.94;;;11.44;92.33
85000;BME280;75320;51.608;7.952;2024-02-15T06:37:40;100990.31;;;11.50;92.30
85000;BME280;75320;51.608;7.952;2024-02-15T06:40:24;100995.59;;;11.50;92.54
85000;BME280;75320;51.608;7.952;2024-02-15T06:42:50;100991.13;;;11.50;91.80
85000;BME280;75320;51.608;7.952;2024-02-15T06:45:16;100988.31;;;11.52;92.00
85000;BME280;75320;51.608;7.952;2024-02-15T06:47:43;100994.75;;;11.49;91.70
85000;BME280;75320;51.608;7.952;2024-02-15T06:50:12;100991.78;;;11.52;91.72
85000;BME280;75320;51.608;7.952;2024-02-15T06:52:39;100995.41;;;11.51;91.49
85000;BME280;75320;51.608;7.952;2024-02-15T06:55:08;101001.28;;;11.70;91.25
85000;BME280;75320;51.608;7.952;2024-02-15T06:57:34;101001.13;;;11.63;91.03
85000;BME280;75320;51.608;7.952;2024-02-15T07:00:05;100998.03;;;11.60;91.05
85000;BME280;75320;51.608;7.952;2024-02-15T07:02:33;101002.59;;;11.66;91.24
85000;BME280;75320;51.608;7.952;2024-02-15T07:04:58;101012.34;;;11.65;91.20
85000;BME280;75320;51.608;7.952;2024-02-15T07:07:24;101006.38;;;11.71;90.89
85000;BME280;75320;51.608;7.952;2024-02-15T07:09:49;101007.06;;;11.65;91.04
85000;BME280;75320;51.608;7.952;2024-02-15T07:12:14;101005.94;;;11.68;90.72
85000;BME280;75320;51.608;7.952;2024-02-15T07:14:40;101013.84;;;11.68;91.27
85000;BME280;75320;51.608;7.952;2024-02-15T07:17:05;101015.97;;;11.64;90.99
85000;BME280;75320;51.608;7.952;2024-02-15T07:19:32;101019.97;;;11.68;91.51
85000;BME280;75320;51.608;7.952;2024-02-15T07:22:01;101011.84;;;11.70;91.00
85000;BME280;75320;51.608;7.952;2024-02-15T07:24:27;101025.91;;;11.70;91.43
85000;BME280;75320;51.608;7.952;2024-02-15T07:26:52;101027.06;;;11.68;91.77
85000;BME280;75320;51.608;7.952;2024-02-15T07:29:21;101020.44;;;11.64;91.51
85000;BME280;75320;51.608;7.952;2024-02-15T07:31:48;101022.44;;;11.62;92.44
85000;BME280;75320;51.608;7.952;2024-02-15T07:34:14;101019.50;;;11.56;92.17
85000;BME280;75320;51.608;7.952;2024-02-15T07:36:39;101023.75;;;11.57;92.85
85000;BME280;75320;51.608;7.952;2024-02-15T07:39:07;101028.03;;;11.67;92.85
85000;BME280;75320;51.608;7.952;2024-02-15T07:41:38;101015.19;;;11.55;93.05
85000;BME280;75320;51.608;7.952;2024-02-15T07:44:04;101023.75;;;11.66;92.66
85000;BME280;75320;51.608;7.952;2024-02-15T07:46:29;101028.53;;;11.62;92.64
85000;BME280;75320;51.608;7.952;2024-02-15T07:48:55;101024.44;;;11.60;92.57
85000;BME280;75320;51.608;7.952;2024-02-15T07:51:22;101019.63;;;11.63;92.85
85000;BME280;75320;51.608;7.952;2024-02-15T07:53:47;101026.06;;;11.61;93.08
85000;BME280;75320;51.608;7.952;2024-02-15T07:56:13;101026.25;;;11.59;93.13
85000;BME280;75320;51.608;7.952;2024-02-15T07:58:45;101018.97;;;11.61;93.25
85000;BME280;75320;51.608;7.952;2024-02-15T08:01:12;101012.34;;;11.65;93.52
85000;BME280;75320;51.608;7.952;2024-02-15T08:03:38;101011.34;;;11.66;93.44
85000;BME280;75320;51.608;7.952;2024-02-15T08:06:09;100999.31;;;11.64;93.38
85000;BME280;75320;51.608;7.952;2024-02-15T08:08:35;100988.91;;;11.62;93.90
85000;BME280;75320;51.608;7.952;2024-02-15T08:11:03;100987.28;;;11.61;93.49
85000;BME280;75320;51.608;7.952;2024-02-15T08:13:28;100981.16;;;11.69;93.59
85000;BME280;75320;51.608;7.952;2024-02-15T08:15:55;100992.00;;;11.74;92.32
85000;BME280;75320;51.608;7.952;2024-02-15T08:18:21;100981.97;;;11.69;93.07
85000;BME280;75320;51.608;7.952;2024-02-15T08:20:47;100977.53;;;11.70;92.71
85000;BME280;75320;51.608;7.952;2024-02-15T08:23:12;100966.13;;;11.69;92.79
85000;BME280;75320;51.608;7.952;2024-02-15T08:25:38;100948.66;;;11.68;92.72
85000;BME280;75320;51.608;7.952;2024-02-15T08:28:05;100944.16;;;11.69;93.10
85000;BME280;75320;51.608;7.952;2024-02-15T08:30:32;100935.72;;;11.73;92.37
85000;BME280;75320;51.608;7.952;2024-02-15T08:32:57;100943.81;;;11.72;92.79
85000;BME280;75320;51.608;7.952;2024-02-15T08:35:23;100938.84;;;11.77;92.49
85000;BME280;75320;51.608;7.952;2024-02-15T08:37:48;100943.94;;;11.78;92.94
85000;BME280;75320;51.608;7.952;2024-02-15T08:40:16;100948.69;;;11.83;91.94
85000;BME280;75320;51.608;7.952;2024-02-15T08:42:44;100950.28;;;11.92;91.92
85000;BME280;75320;51.608;7.952;2024-02-15T08:45:10;100950.09;;;11.93;92.26
85000;BME280;75320;51.608;7.952;2024-02-15T08:47:40;100946.28;;;11.96;91.78
85000;BME280;75320;51.608;7.952;2024-02-15T08:50:07;100950.47;;;12.05;91.62
85000;BME280;75320;51.608;7.952;2024-02-15T08:52:35;100951.19;;;11.99;91.80
85000;BME280;75320;51.608;7.952;2024-02-15T08:55:11;100952.97;;;12.06;91.69
85000;BME280;75320;51.608;7.952;2024-02-15T08:57:40;100959.34;;;12.12;90.75
85000;BME280;75320;51.608;7.952;2024-02-15T09:00:10;100963.28;;;12.16;91.17
85000;BME280;75320;51.608;7.952;2024-02-15T09:02:40;100960.63;;;12.16;90.65
85000;BME280;75320;51.608;7.952;2024-02-15T09:05:06;100958.81;;;12.16;90.96
85000;BME280;75320;51.608;7.952;2024-02-15T09:07:31;100960.75;;;12.22;90.50
85000;BME280;75320;51.608;7.952;2024-02-15T09:09:56;100968.34;;;12.25;91.35
85000;BME280;75320;51.608;7.952;2024-02-15T09:12:22;100975.13;;;12.43;90.03
85000;BME280;75320;51.608;7.952;2024-02-15T09:14:47;100966.16;;;12.44;90.18
85000;BME280;75320;51.608;7.952;2024-02-15T09:17:13;100966.09;;;12.52;90.25
85000;BME280;75320;51.608;7.952;2024-02-15T09:19:39;100970.38;;;12.53;90.11
85000;BME280;75320;51.608;7.952;2024-02-15T09:22:04;100976.16;;;12.56;90.05
85000;BME280;75320;51.608;7.952;2024-02-15T09:24:30;100982.31;;;12.49;90.86
85000;BME280;75320;51.608;7.952;2024-02-15T09:26:58;100973.94;;;12.45;91.05
85000;BME280;75320;51.608;7.952;2024-02-15T09:29:23;100967.91;;;12.51;90.36
85000;BME280;75320;51.608;7.952;2024-02-15T09:31:49;100956.69;;;12.49;90.19
85000;BME280;75320;51.608;7.952;2024-02-15T09:34:14;100966.66;;;12.47;90.80
85000;BME280;75320;51.608;7.952;2024-02-15T09:36:40;100963.28;;;12.53;90.39
85000;BME280;75320;51.608;7.952;2024-02-15T09:39:05;100966.91;;;12.52;90.17
85000;BME280;75320;51.608;7.952;2024-02-15T09:41:31;100959.16;;;12.51;90.03
85000;BME280;75320;51.608;7.952;2024-02-15T09:43:57;100969.75;;;12.65;90.36
85000;BME280;75320;51.608;7.952;2024-02-15T09:46:23;100961.75;;;12.73;90.10
85000;BME280;75320;51.608;7.952;2024-02-15T09:48:50;100965.47;;;12.79;90.82
85000;BME280;75320;51.608;7.952;2024-02-15T09:51:20;100956.81;;;12.85;89.42
85000;BME280;75320;51.608;7.952;2024-02-15T09:53:47;100967.47;;;12.91;89.62
85000;BME280;75320;51.608;7.952;2024-02-15T09:56:13;100959.19;;;12.94;89.94
85000;BME280;75320;51.608;7.952;2024-02-15T09:58:39;100964.91;;;12.98;89.57
85000;BME280;75320;51.608;7.952;2024-02-15T10:01:05;100970.97;;;13.06;90.17
85000;BME280;75320;51.608;7.952;2024-02-15T10:03:37;100974.69;;;12.97;89.68
85000;BME280;75320;51.608;7.952;2024-02-15T10:06:03;100978.50;;;12.80;90.14
85000;BME280;75320;51.608;7.952;2024-02-15T10:08:32;100981.44;;;12.85;90.48
85000;BME280;75320;51.608;7.952;2024-02-15T10:11:07;100986.75;;;12.71;90.44
85000;BME280;75320;51.608;7.952;2024-02-15T10:13:34;100982.81;;;12.67;91.07
85000;BME280;75320;51.608;7.952;2024-02-15T10:16:14;100985.47;;;12.67;91.00
85000;BME280;75320;51.608;7.952;2024-02-15T10:18:39;100986.81;;;12.63;91.83
85000;BME280;75320;51.608;7.952;2024-02-15T10:21:04;100984.09;;;12.56;91.91
85000;BME280;75320;51.608;7.952;2024-02-15T10:23:30;100986.63;;;12.50;92.83
85000;BME280;75320;51.608;7.952;2024-02-15T10:25:55;100984.44;;;12.53;92.65
85000;BME280;75320;51.608;7.952;2024-02-15T10:28:21;100980.31;;;12.65;92.10
85000;BME280;75320;51.608;7.952;2024-02-15T10:30:52;100969.00;;;12.71;92.53
85000;BME280;75320;51.608;7.952;2024-02-15T10:33:25;100969.84;;;12.72;91.91
85000;BME280;75320;51.608;7.952;2024-02-15T10:36:05;100965.28;;;12.80;91.20
85000;BME280;75320;51.608;7.952;2024-02-15T10:38:30;100964.19;;;12.89;91.11
85000;BME280;75320;51.608;7.952;2024-02-15T10:41:03;100961.00;;;12.94;91.45
85000;BME280;75320;51.608;7.952;2024-02-15T10:43:30;100958.78;;;12.97;91.51
85000;BME280;75320;51.608;7.952;2024-02-15T10:45:56;100960.19;;;12.93;90.84
85000;BME280;75320;51.608;7.952;2024-02-15T10:48:22;100963.94;;;12.99;90.94
85000;BME280;75320;51.608;7.952;2024-02-15T10:50:47;100951.13;;;13.02;91.27
85000;BME280;75320;51.608;7.952;2024-02-15T10:53:26;100949.16;;;13.04;90.11
85000;BME280;75320;51.608;7.952;2024-02-15T10:58:32;100950.69;;;13.14;89.41
85000;BME280;75320;51.608;7.952;2024-02-15T11:01:06;100950.69;;;13.14;89.23
85000;BME280;75320;51.608;7.952;2024-02-15T11:03:35;100948.88;;;13.14;88.36
85000;BME280;75320;51.608;7.952;2024-02-15T11:06:02;100953.34;;;13.14;88.53
85000;BME280;75320;51.608;7.952;2024-02-15T11:08:30;100944.66;;;13.20;88.45
85000;BME280;75320;51.608;7.952;2024-02-15T11:10:56;100946.94;;;13.23;88.83
85000;BME280;75320;51.608;7.952;2024-02-15T11:13:24;100942.84;;;13.20;88.98
85000;BME280;75320;51.608;7.952;2024-02-15T11:15:49;100948.50;;;13.17;89.13
85000;BME280;75320;51.608;7.952;2024-02-15T11:18:49;100946.66;;;13.18;88.74
85000;BME280;75320;51.608;7.952;2024-02-15T11:21:17;100945.94;;;13.24;89.15
85000;BME280;75320;51.608;7.952;2024-02-15T11:23:43;100937.22;;;13.30;89.03
85000;BME280;75320;51.608;7.952;2024-02-15T11:26:42;100936.44;;;13.29;88.53
85000;BME280;75320;51.608;7.952;2024-02-15T11:29:01;100929.19;;;13.38;88.32
85000;BME280;75320;51.608;7.952;2024-02-15T11:31:53;100932.09;;;13.43;87.77
85000;BME280;75320;51.608;7.952;2024-02-15T11:34:44;100929.22;;;13.59;87.49
85000;BME280;75320;51.608;7.952;2024-02-15T11:40:23;100914.78;;;13.61;86.11
85000;BME280;75320;51.608;7.952;2024-02-15T11:42:56;100908.06;;;13.65;85.40
85000;BME280;75320;51.608;7.952;2024-02-15T11:45:28;100906.28;;;13.72;84.98
85000;BME280;75320;51.608;7.952;2024-02-15T11:48:10;100903.69;;;13.79;84.60
85000;BME280;75320;51.608;7.952;2024-02-15T11:50:39;100900.47;;;13.83;84.18
85000;BME280;75320;51.608;7.952;2024-02-15T11:53:07;100899.84;;;13.81;83.47
85000;BME280;75320;51.608;7.952;2024-02-15T11:55:36;100897.19;;;13.81;83.83
85000;BME280;75320;51.608;7.952;2024-02-15T11:58:02;100889.19;;;13.75;82.43
85000;BME280;75320;51.608;7.952;2024-02-15T12:00:34;100891.91;;;13.81;83.53
85000;BME280;75320;51.608;7.952;2024-02-15T12:03:19;100890.44;;;13.79;82.95
85000;BME280;75320;51.608;7.952;2024-02-15T12:06:03;100888.81;;;13.78;83.57
85000;BME280;75320;51.608;7.952;2024-02-15T12:08:50;100893.88;;;13.73;83.23
85000;BME280;75320;51.608;7.952;2024-02-15T12:11:35;100887.31;;;13.69;84.03
85000;BME280;75320;51.608;7.952;2024-02-15T12:14:19;100888.56;;;13.73;84.00
85000;BME280;75320;51.608;7.952;2024-02-15T12:17:07;100884.22;;;13.87;83.31
85000;BME280;75320;51.608;7.952;2024-02-15T12:19:53;100881.56;;;13.87;83.57
85000;BME280;75320;51.608;7.952;2024-02-15T12:22:31;100870.19;;;13.93;83.75
85000;BME280;75320;51.608;7.952;2024-02-15T12:25:01;100882.47;;;14.00;82.83
85000;BME280;75320;51.608;7.952;2024-02-15T12:27:31;100875.28;;;13.94;82.95
85000;BME280;75320;51.608;7.952;2024-02-15T12:29:57;100872.63;;;13.94;82.39
85000;BME280;75320;51.608;7.952;2024-02-15T12:32:27;100871.84;;;14.00;81.98
85000;BME280;75320;51.608;7.952;2024-02-15T12:34:53;100870.47;;;14.04;82.53
85000;BME280;75320;51.608;7.952;2024-02-15T12:37:33;100861.69;;;14.04;81.35
85000;BME280;75320;51.608;7.952;2024-02-15T12:40:10;100861.16;;;14.15;81.03
85000;BME280;75320;51.608;7.952;2024-02-15T12:42:39;100852.00;;;14.17;81.13
85000;BME280;75320;51.608;7.952;2024-02-15T12:45:04;100854.31;;;14.27;80.76
85000;BME280;75320;51.608;7.952;2024-02-15T12:47:32;100848.16;;;14.26;79.95
85000;BME280;75320;51.608;7.952;2024-02-15T12:49:57;100851.94;;;14.32;80.63
85000;BME280;75320;51.608;7.952;2024-02-15T12:52:36;100846.22;;;14.35;80.46
85000;BME280;75320;51.608;7.952;2024-02-15T12:55:11;100846.47;;;14.40;80.23
85000;BME280;75320;51.608;7.952;2024-02-15T12:57:38;100838.28;;;14.41;81.75
85000;BME280;75320;51.608;7.952;2024-02-15T13:00:07;100830.56;;;14.46;79.66